createdAt,value
2023-12-02T00:00:01.872Z,52.04
2023-12-02T00:01:01.789Z,52.88
2023-12-02T00:02:01.734Z,53.97
2023-12-02T00:03:01.588Z,52.21
2023-12-02T00:04:02.472Z,52.90
2023-12-02T00:05:01.419Z,54.33
2023-12-02T00:06:01.406Z,53.91
2023-12-02T00:07:01.232Z,57.57
2023-12-02T00:08:01.173Z,52.16
2023-12-02T00:09:01.965Z,52.32
2023-12-02T00:10:00.970Z,52.97
2023-12-02T00:11:01.890Z,54.27
2023-12-02T00:12:00.947Z,57.21
2023-12-02T00:13:00.796Z,52.21
2023-12-02T00:14:00.696Z,52.24
2023-12-02T00:15:00.760Z,52.36
2023-12-02T00:16:00.526Z,52.40
2023-12-02T00:17:00.435Z,52.43
2023-12-02T00:18:00.559Z,52.46
2023-12-02T00:19:00.476Z,53.91
2023-12-02T00:20:00.875Z,55.37
2023-12-02T00:21:00.210Z,56.94
2023-12-02T00:22:00.044Z,57.81
2023-12-02T00:22:59.992Z,56.01
2023-12-02T00:23:59.990Z,57.62
2023-12-02T00:24:59.903Z,57.66
2023-12-02T00:25:59.788Z,57.96
2023-12-02T00:26:59.765Z,58.35
2023-12-02T00:28:00.424Z,59.20
2023-12-02T00:29:00.929Z,60.27
2023-12-02T00:29:59.503Z,61.50
2023-12-02T00:30:59.365Z,58.66
2023-12-02T00:31:59.284Z,58.88
2023-12-02T00:32:59.224Z,59.01
2023-12-02T00:33:59.227Z,59.54
2023-12-02T00:34:59.056Z,58.98
2023-12-02T00:35:58.981Z,59.39
2023-12-02T00:36:58.889Z,59.40
2023-12-02T00:37:58.821Z,58.90
2023-12-02T00:38:59.442Z,59.14
2023-12-02T00:39:58.925Z,60.09
2023-12-02T00:40:58.781Z,58.79
2023-12-02T00:41:58.741Z,58.97
2023-12-02T00:42:58.594Z,59.03
2023-12-02T00:43:58.599Z,58.87
2023-12-02T00:44:58.477Z,58.96
2023-12-02T00:45:58.383Z,59.06
2023-12-02T00:46:58.882Z,58.87
2023-12-02T00:47:58.238Z,59.17
2023-12-02T00:48:58.250Z,57.69
2023-12-02T00:49:58.035Z,57.52
2023-12-02T00:50:58.038Z,58.85
2023-12-02T00:51:57.938Z,58.94
2023-12-02T00:52:57.838Z,59.37
2023-12-02T00:53:57.818Z,59.01
2023-12-02T00:54:57.665Z,59.15
2023-12-02T00:55:57.641Z,59.21
2023-12-02T00:56:57.521Z,59.14
2023-12-02T00:57:57.459Z,59.13
2023-12-02T00:58:57.886Z,60.27
2023-12-02T00:59:57.312Z,60.79
2023-12-02T01:00:57.937Z,59.01
2023-12-02T01:01:57.215Z,59.11
2023-12-02T01:02:57.105Z,59.12
2023-12-02T01:03:57.000Z,59.58
2023-12-02T01:04:57.523Z,58.79
2023-12-02T01:05:56.888Z,57.75
2023-12-02T01:06:56.763Z,60.95
2023-12-02T01:07:56.585Z,58.92
2023-12-02T01:08:56.632Z,58.92
2023-12-02T01:09:56.486Z,59.35
2023-12-02T01:10:56.407Z,59.21
2023-12-02T01:11:56.331Z,59.76
2023-12-02T01:12:56.180Z,58.77
2023-12-02T01:13:56.171Z,58.90
2023-12-02T01:14:56.347Z,59.10
2023-12-02T01:15:56.955Z,59.04
2023-12-02T01:16:55.925Z,59.49
2023-12-02T01:17:56.484Z,59.00
2023-12-02T01:18:55.885Z,59.11
2023-12-02T01:19:56.474Z,59.10
2023-12-02T01:20:56.457Z,59.43
2023-12-02T01:21:55.552Z,58.77
2023-12-02T01:22:55.458Z,59.05
2023-12-02T01:23:55.379Z,58.78
2023-12-02T01:24:55.208Z,56.72
2023-12-02T01:25:55.166Z,53.09
2023-12-02T01:26:55.120Z,57.73
2023-12-02T01:27:55.909Z,58.76
2023-12-02T01:28:54.918Z,58.90
2023-12-02T01:29:54.910Z,58.91
2023-12-02T01:30:54.722Z,58.95
2023-12-02T01:31:54.718Z,58.83
2023-12-02T01:32:54.700Z,58.80
2023-12-02T01:33:54.601Z,58.89
2023-12-02T01:34:54.572Z,58.81
2023-12-02T01:35:54.500Z,55.21
2023-12-02T01:36:54.298Z,52.91
2023-12-02T01:37:54.887Z,56.98
2023-12-02T01:38:54.229Z,52.69
2023-12-02T01:39:54.131Z,50.40
2023-12-02T01:40:53.978Z,58.68
2023-12-02T01:41:54.496Z,57.35
2023-12-02T01:42:53.790Z,52.24
2023-12-02T01:43:53.669Z,51.70
2023-12-02T01:44:54.405Z,47.91
2023-12-02T01:45:53.562Z,46.93
2023-12-02T01:46:54.401Z,55.79
2023-12-02T01:47:53.558Z,55.20
2023-12-02T01:48:53.421Z,58.70
2023-12-02T01:49:53.311Z,58.76
2023-12-02T01:50:53.384Z,58.83
2023-12-02T01:51:53.134Z,55.39
2023-12-02T01:52:53.966Z,58.51
2023-12-02T01:53:53.989Z,58.77
2023-12-02T01:54:52.893Z,58.67
2023-12-02T01:55:53.498Z,56.25
2023-12-02T01:56:52.897Z,50.46
2023-12-02T01:57:52.623Z,55.96
2023-12-02T01:58:53.461Z,58.63
2023-12-02T01:59:52.485Z,52.64
2023-12-02T02:00:52.404Z,58.69
2023-12-02T02:01:52.376Z,50.92
2023-12-02T02:02:52.272Z,58.47
2023-12-02T02:03:52.942Z,51.87
2023-12-02T02:04:52.143Z,58.02
2023-12-02T02:05:52.045Z,53.50
2023-12-02T02:06:51.932Z,58.71
2023-12-02T02:07:51.790Z,58.73
2023-12-02T02:08:51.786Z,58.71
2023-12-02T02:09:52.431Z,58.80
2023-12-02T02:10:51.750Z,56.64
2023-12-02T02:11:51.654Z,58.81
2023-12-02T02:12:51.583Z,55.80
2023-12-02T02:13:51.476Z,58.71
2023-12-02T02:14:51.422Z,58.75
2023-12-02T02:15:51.346Z,58.78
2023-12-02T02:16:51.248Z,58.72
2023-12-02T02:17:51.207Z,50.01
2023-12-02T02:18:51.253Z,51.65
2023-12-02T02:19:51.034Z,47.85
2023-12-02T02:20:50.864Z,52.95
2023-12-02T02:21:51.529Z,54.43
2023-12-02T02:22:50.993Z,57.90
2023-12-02T02:23:50.873Z,55.49
2023-12-02T02:24:50.759Z,58.69
2023-12-02T02:25:50.762Z,57.82
2023-12-02T02:26:50.743Z,52.77
2023-12-02T02:27:50.638Z,54.32
2023-12-02T02:28:50.607Z,55.04
2023-12-02T02:29:50.904Z,58.66
2023-12-02T02:30:50.422Z,50.87
2023-12-02T02:31:50.309Z,49.82
2023-12-02T02:32:50.322Z,49.97
2023-12-02T02:33:50.239Z,56.73
2023-12-02T02:34:50.012Z,51.68
2023-12-02T02:35:50.102Z,57.14
2023-12-02T02:36:50.441Z,58.68
2023-12-02T02:37:50.495Z,49.37
2023-12-02T02:38:49.916Z,52.54
2023-12-02T02:39:49.809Z,55.03
2023-12-02T02:40:50.434Z,48.53
2023-12-02T02:41:49.625Z,48.25
2023-12-02T02:42:49.534Z,56.27
2023-12-02T02:43:49.468Z,52.09
2023-12-02T02:44:49.387Z,57.96
2023-12-02T02:45:49.297Z,58.79
2023-12-02T02:46:49.959Z,58.87
2023-12-02T02:47:49.398Z,58.96
2023-12-02T02:48:49.447Z,58.73
2023-12-02T02:49:49.873Z,58.87
2023-12-02T02:50:49.187Z,57.14
2023-12-02T02:51:49.121Z,54.08
2023-12-02T02:52:49.934Z,58.68
2023-12-02T02:53:48.933Z,54.04
2023-12-02T02:54:48.836Z,51.59
2023-12-02T02:55:48.723Z,49.05
2023-12-02T02:56:48.732Z,47.67
2023-12-02T02:57:48.641Z,50.45
2023-12-02T02:58:48.478Z,50.70
2023-12-02T02:59:48.502Z,50.81
2023-12-02T03:00:48.364Z,51.52
2023-12-02T03:01:48.337Z,51.64
2023-12-02T03:02:48.979Z,50.76
2023-12-02T03:03:48.149Z,50.84
2023-12-02T03:04:48.059Z,51.04
2023-12-02T03:05:48.002Z,51.00
2023-12-02T03:06:48.028Z,50.94
2023-12-02T03:07:47.779Z,50.98
2023-12-02T03:08:47.688Z,50.93
2023-12-02T03:09:47.700Z,50.99
2023-12-02T03:10:47.656Z,50.90
2023-12-02T03:11:49.562Z,50.97
2023-12-02T03:12:47.505Z,51.09
2023-12-02T03:13:48.535Z,52.52
2023-12-02T03:14:48.790Z,54.20
2023-12-02T03:15:47.323Z,56.69
2023-12-02T03:16:47.287Z,60.92
2023-12-02T03:17:47.186Z,60.41
2023-12-02T03:18:47.178Z,60.48
2023-12-02T03:19:47.101Z,58.67
2023-12-02T03:20:47.018Z,60.66
2023-12-02T03:21:46.955Z,60.64
2023-12-02T03:22:46.879Z,60.97
2023-12-02T03:23:46.767Z,61.03
2023-12-02T03:24:46.705Z,60.48
2023-12-02T03:25:46.595Z,60.57
2023-12-02T03:26:47.418Z,60.54
2023-12-02T03:27:46.478Z,57.58
2023-12-02T03:28:46.440Z,56.90
2023-12-02T03:29:46.961Z,60.55
2023-12-02T03:30:46.212Z,58.68
2023-12-02T03:31:46.149Z,56.08
2023-12-02T03:32:46.078Z,60.43
2023-12-02T03:33:46.051Z,60.53
2023-12-02T03:34:45.968Z,60.60
2023-12-02T03:35:45.823Z,60.65
2023-12-02T03:36:45.780Z,58.61
2023-12-02T03:37:45.730Z,55.10
2023-12-02T03:38:46.448Z,54.05
2023-12-02T03:39:45.568Z,55.47
2023-12-02T03:40:45.552Z,55.09
2023-12-02T03:41:45.445Z,55.31
2023-12-02T03:42:45.388Z,55.35
2023-12-02T03:43:54.907Z,55.32
2023-12-02T03:44:46.295Z,55.49
2023-12-02T03:45:45.268Z,55.57
2023-12-02T03:46:45.277Z,55.38
2023-12-02T03:47:45.223Z,55.46
2023-12-02T03:48:45.179Z,55.43
2023-12-02T03:49:45.119Z,55.26
2023-12-02T03:50:45.000Z,55.30
2023-12-02T03:51:44.985Z,55.29
2023-12-02T03:52:45.482Z,55.36
2023-12-02T03:53:44.873Z,54.89
2023-12-02T03:54:44.798Z,53.58
2023-12-02T03:55:45.475Z,55.19
2023-12-02T03:56:44.704Z,53.43
2023-12-02T03:57:44.643Z,55.27
2023-12-02T03:58:44.563Z,55.34
2023-12-02T03:59:45.448Z,55.40
2023-12-02T04:00:45.458Z,55.72
2023-12-02T04:01:44.393Z,55.99
2023-12-02T04:02:44.340Z,55.31
2023-12-02T04:03:44.286Z,55.35
2023-12-02T04:04:44.326Z,55.34
2023-12-02T04:05:44.128Z,55.33
2023-12-02T04:06:45.093Z,55.41
2023-12-02T04:07:44.972Z,55.97
2023-12-02T04:08:44.035Z,57.18
2023-12-02T04:10:07.320Z,55.42
2023-12-02T04:10:44.432Z,55.89
2023-12-02T04:11:44.065Z,56.18
2023-12-02T04:12:43.946Z,55.90
2023-12-02T04:13:43.915Z,55.77
2023-12-02T04:14:43.786Z,55.73
2023-12-02T04:15:43.780Z,55.66
2023-12-02T04:16:43.797Z,55.68
2023-12-02T04:17:43.737Z,55.62
2023-12-02T04:18:43.709Z,55.59
2023-12-02T04:19:43.527Z,56.29
2023-12-02T04:20:43.534Z,55.38
2023-12-02T04:21:43.430Z,55.54
2023-12-02T04:22:43.992Z,55.95
2023-12-02T04:23:43.538Z,55.51
2023-12-02T04:24:43.397Z,55.48
2023-12-02T04:25:43.395Z,55.51
2023-12-02T04:26:43.968Z,55.52
2023-12-02T04:27:43.304Z,55.89
2023-12-02T04:28:43.344Z,55.40
2023-12-02T04:29:43.275Z,55.51
2023-12-02T04:30:43.209Z,55.62
2023-12-02T04:31:43.145Z,55.68
2023-12-02T04:32:43.059Z,56.88
2023-12-02T04:33:43.101Z,58.21
2023-12-02T04:34:43.563Z,55.61
2023-12-02T04:35:42.805Z,56.48
2023-12-02T04:36:43.501Z,55.51
2023-12-02T04:37:42.749Z,56.07
2023-12-02T04:38:42.735Z,58.21
2023-12-02T04:39:42.667Z,57.96
2023-12-02T04:40:42.478Z,62.75
2023-12-02T04:41:42.434Z,56.58
2023-12-02T04:42:42.383Z,56.42
2023-12-02T04:43:42.299Z,59.28
2023-12-02T04:44:42.435Z,63.11
2023-12-02T04:45:42.276Z,55.90
2023-12-02T04:46:42.239Z,55.84
2023-12-02T04:47:43.002Z,57.32
2023-12-02T04:48:42.160Z,55.71
2023-12-02T04:49:42.028Z,55.72
2023-12-02T04:50:41.877Z,55.82
2023-12-02T04:51:42.541Z,55.82
2023-12-02T04:52:41.807Z,56.99
2023-12-02T04:53:41.719Z,55.61
2023-12-02T04:54:41.681Z,56.97
2023-12-02T04:55:41.556Z,58.32
2023-12-02T04:56:41.445Z,58.97
2023-12-02T04:57:41.374Z,55.51
2023-12-02T04:59:07.888Z,56.24
2023-12-02T04:59:41.402Z,55.80
2023-12-02T05:00:41.301Z,56.81
2023-12-02T05:01:41.260Z,56.34
2023-12-02T05:02:42.036Z,56.14
2023-12-02T05:03:41.142Z,56.07
2023-12-02T05:04:41.024Z,56.26
2023-12-02T05:05:40.927Z,59.42
2023-12-02T05:06:41.564Z,56.03
2023-12-02T05:07:41.046Z,56.17
2023-12-02T05:08:41.502Z,58.52
2023-12-02T05:09:40.929Z,62.19
2023-12-02T05:10:40.875Z,66.04
2023-12-02T05:11:40.783Z,71.35
2023-12-02T05:12:40.769Z,55.80
2023-12-02T05:13:42.561Z,57.47
2023-12-02T05:14:40.591Z,60.90
2023-12-02T05:15:43.544Z,55.95
2023-12-02T05:16:40.443Z,55.99
2023-12-02T05:17:40.493Z,56.13
2023-12-02T05:18:40.486Z,56.10
2023-12-02T05:19:40.385Z,56.09
2023-12-02T05:20:40.310Z,58.24
2023-12-02T05:21:40.228Z,61.99
2023-12-02T05:22:41.043Z,64.31
2023-12-02T05:23:53.828Z,50.00
2023-12-02T05:24:53.791Z,50.00
2023-12-02T05:25:53.778Z,50.00
2023-12-02T05:26:53.607Z,50.00
2023-12-02T05:27:53.599Z,50.00
2023-12-02T05:28:53.606Z,50.00
2023-12-02T05:29:53.838Z,50.00
2023-12-02T05:30:53.528Z,50.00
2023-12-02T05:31:54.449Z,50.00
2023-12-02T05:32:53.546Z,50.00
2023-12-02T05:33:54.575Z,50.00
2023-12-02T05:34:53.618Z,50.00
2023-12-02T05:35:53.556Z,50.00
2023-12-02T05:36:53.551Z,50.00
2023-12-02T05:37:54.527Z,50.00
2023-12-02T05:38:53.544Z,50.00
2023-12-02T05:39:53.471Z,50.00
2023-12-02T05:40:54.490Z,50.00
2023-12-02T05:41:53.486Z,50.00
2023-12-02T05:42:53.428Z,50.00
2023-12-02T05:43:53.959Z,50.00
2023-12-02T05:44:53.513Z,50.00
2023-12-02T05:45:55.184Z,50.00
2023-12-02T05:46:53.515Z,50.00
2023-12-02T05:47:53.530Z,50.00
2023-12-02T05:48:53.571Z,50.00
2023-12-02T05:49:53.419Z,50.00
2023-12-02T05:50:53.364Z,50.00
2023-12-02T05:51:53.465Z,50.00
2023-12-02T05:52:53.954Z,50.00
2023-12-02T05:53:53.268Z,50.00
2023-12-02T05:54:53.318Z,50.00
2023-12-02T05:55:53.209Z,50.00
2023-12-02T05:56:53.203Z,50.00
2023-12-02T05:57:53.214Z,50.00
2023-12-02T05:58:53.190Z,50.00
2023-12-02T05:59:53.235Z,50.00
2023-12-02T06:00:53.204Z,50.00
2023-12-02T06:01:53.267Z,50.00
2023-12-02T06:02:53.244Z,50.00
2023-12-02T06:03:53.321Z,50.00
2023-12-02T06:04:53.192Z,50.00
2023-12-02T06:05:53.051Z,50.00
2023-12-02T06:06:53.209Z,50.00
2023-12-02T06:07:53.061Z,50.00
2023-12-02T06:08:53.075Z,50.00
2023-12-02T06:09:53.138Z,50.00
2023-12-02T06:10:53.146Z,50.00
2023-12-02T06:11:53.034Z,50.00
2023-12-02T06:12:53.025Z,50.00
2023-12-02T06:13:53.070Z,50.00
2023-12-02T06:14:53.023Z,53.86
2023-12-02T06:15:52.978Z,54.09
2023-12-02T06:16:53.509Z,54.42
2023-12-02T06:17:52.985Z,51.93
2023-12-02T06:18:53.117Z,53.28
2023-12-02T06:19:52.958Z,53.97
2023-12-02T06:20:53.475Z,54.19
2023-12-02T06:21:52.870Z,53.93
2023-12-02T06:22:52.824Z,53.60
2023-12-02T06:23:52.889Z,51.79
2023-12-02T06:24:52.849Z,54.00
2023-12-02T06:25:52.773Z,54.18
2023-12-02T06:26:52.702Z,54.49
2023-12-02T06:27:52.719Z,54.71
2023-12-02T06:28:52.704Z,54.22
2023-12-02T06:29:52.705Z,54.31
2023-12-02T06:30:52.666Z,54.44
2023-12-02T06:31:52.613Z,54.31
2023-12-02T06:32:52.603Z,54.82
2023-12-02T06:33:52.581Z,45.88
2023-12-02T06:34:52.606Z,54.26
2023-12-02T06:35:52.433Z,54.40
2023-12-02T06:36:52.451Z,55.56
2023-12-02T06:37:53.014Z,55.87
2023-12-02T06:38:52.363Z,57.75
2023-12-02T06:39:52.372Z,54.13
2023-12-02T06:40:52.415Z,54.57
2023-12-02T06:41:52.330Z,55.42
2023-12-02T06:42:52.349Z,54.11
2023-12-02T06:43:52.333Z,55.69
2023-12-02T06:44:52.200Z,58.97
2023-12-02T06:45:53.860Z,54.31
2023-12-02T06:46:52.115Z,54.88
2023-12-02T06:47:52.124Z,54.38
2023-12-02T06:48:52.244Z,54.34
2023-12-02T06:49:52.079Z,54.96
2023-12-02T06:50:52.036Z,54.68
2023-12-02T06:51:52.070Z,54.07
2023-12-02T06:52:52.015Z,54.13
2023-12-02T06:53:51.947Z,54.12
2023-12-02T06:55:51.880Z,54.06
2023-12-02T06:56:51.876Z,53.97
2023-12-02T06:57:51.775Z,52.06
2023-12-02T06:58:51.907Z,53.90
2023-12-02T06:59:52.463Z,54.06
2023-12-02T07:00:51.726Z,54.10
2023-12-02T07:01:51.686Z,54.30
2023-12-02T07:02:51.986Z,54.18
2023-12-02T07:03:51.619Z,54.40
2023-12-02T07:04:51.616Z,54.99
2023-12-02T07:05:51.652Z,54.29
2023-12-02T07:06:51.491Z,54.25
2023-12-02T07:07:51.479Z,54.16
2023-12-02T07:08:51.970Z,54.57
2023-12-02T07:09:51.981Z,54.49
2023-12-02T07:10:51.472Z,52.20
2023-12-02T07:11:51.372Z,53.93
2023-12-02T07:12:51.465Z,54.04
2023-12-02T07:13:51.355Z,53.68
2023-12-02T07:14:51.967Z,52.54
2023-12-02T07:15:51.277Z,50.99
2023-12-02T07:16:51.223Z,51.58
2023-12-02T07:17:51.235Z,52.12
2023-12-02T07:18:51.258Z,52.31
2023-12-02T07:19:51.219Z,52.44
2023-12-02T07:20:51.120Z,52.47
2023-12-02T07:21:52.020Z,52.94
2023-12-02T07:22:51.226Z,53.04
2023-12-02T07:23:51.081Z,52.39
2023-12-02T07:24:51.062Z,52.94
2023-12-02T07:25:51.056Z,53.08
2023-12-02T07:26:51.021Z,56.34
2023-12-02T07:27:51.076Z,52.61
2023-12-02T07:28:50.951Z,53.66
2023-12-02T07:30:51.565Z,52.80
2023-12-02T07:31:50.878Z,54.25
2023-12-02T07:32:50.806Z,56.42
2023-12-02T07:33:50.813Z,57.69
2023-12-02T07:34:50.856Z,58.55
2023-12-02T07:35:51.539Z,58.26
2023-12-02T07:36:50.716Z,58.50
2023-12-02T07:37:50.702Z,58.79
2023-12-02T07:38:50.619Z,59.44
2023-12-02T07:39:50.652Z,58.83
2023-12-02T07:40:50.641Z,58.60
2023-12-02T07:41:50.576Z,58.66
2023-12-02T07:42:51.208Z,58.77
2023-12-02T07:43:50.567Z,58.95
2023-12-02T07:44:50.659Z,58.61
2023-12-02T07:45:50.502Z,58.72
2023-12-02T07:46:50.420Z,58.84
2023-12-02T07:47:50.448Z,58.92
2023-12-02T07:48:50.469Z,58.93
2023-12-02T07:49:50.481Z,59.11
2023-12-02T07:50:50.310Z,58.78
2023-12-02T07:51:50.362Z,58.69
2023-12-02T07:52:50.246Z,58.83
2023-12-02T07:53:50.338Z,58.90
2023-12-02T07:54:50.258Z,59.22
2023-12-02T07:55:50.377Z,59.23
2023-12-02T07:56:50.213Z,59.07
2023-12-02T07:57:50.282Z,58.93
2023-12-02T07:58:50.296Z,58.83
2023-12-02T07:59:50.280Z,58.78
2023-12-02T08:00:50.327Z,58.59
2023-12-02T08:01:50.338Z,55.21
2023-12-02T08:02:50.352Z,58.56
2023-12-02T08:03:50.302Z,58.72
2023-12-02T08:05:51.090Z,58.67
2023-12-02T08:06:50.163Z,58.53
2023-12-02T08:07:50.024Z,58.66
2023-12-02T08:08:50.941Z,58.71
2023-12-02T08:09:50.156Z,56.48
2023-12-02T08:10:51.006Z,57.86
2023-12-02T08:11:50.027Z,56.41
2023-12-02T08:12:50.482Z,57.42
2023-12-02T08:13:50.514Z,54.64
2023-12-02T08:14:50.478Z,52.55
2023-12-02T08:15:50.551Z,50.20
2023-12-02T08:16:50.206Z,52.08
2023-12-02T08:17:51.021Z,52.11
2023-12-02T08:18:50.073Z,52.34
2023-12-02T08:19:50.142Z,52.63
2023-12-02T08:20:50.033Z,52.73
2023-12-02T08:21:50.030Z,52.66
2023-12-02T08:22:50.023Z,52.75
2023-12-02T08:23:49.987Z,53.77
2023-12-02T08:24:50.450Z,52.45
2023-12-02T08:25:50.051Z,52.55
2023-12-02T08:26:50.482Z,52.50
2023-12-02T08:27:49.968Z,52.65
2023-12-02T08:28:50.075Z,51.49
2023-12-02T08:29:50.057Z,52.16
2023-12-02T08:30:49.948Z,52.26
2023-12-02T08:31:50.543Z,52.36
2023-12-02T08:32:50.571Z,49.54
2023-12-02T08:33:50.129Z,52.25
2023-12-02T08:34:50.106Z,52.39
2023-12-02T08:35:49.996Z,52.47
2023-12-02T08:36:50.513Z,52.56
2023-12-02T08:37:49.943Z,52.90
2023-12-02T08:38:49.911Z,51.99
2023-12-02T08:39:49.818Z,50.99
2023-12-02T08:40:49.872Z,49.10
2023-12-02T08:41:49.812Z,45.69
2023-12-02T08:42:49.742Z,51.42
2023-12-02T08:43:49.686Z,52.15
2023-12-02T08:44:49.645Z,52.10
2023-12-02T08:45:49.735Z,48.56
2023-12-02T08:46:50.672Z,48.83
2023-12-02T08:47:49.659Z,52.13
2023-12-02T08:48:49.631Z,51.34
2023-12-02T08:49:49.619Z,49.67
2023-12-02T08:50:49.467Z,46.08
2023-12-02T08:51:50.019Z,52.09
2023-12-02T08:52:50.066Z,43.09
2023-12-02T08:53:50.014Z,39.08
2023-12-02T08:54:49.279Z,37.72
2023-12-02T08:55:49.386Z,47.61
2023-12-02T08:56:49.185Z,49.02
2023-12-02T08:57:49.956Z,49.69
2023-12-02T08:58:49.174Z,46.21
2023-12-02T08:59:49.977Z,50.28
2023-12-02T09:00:50.593Z,43.46
2023-12-02T09:01:49.012Z,52.15
2023-12-02T09:02:49.280Z,45.00
2023-12-02T09:03:49.016Z,48.92
2023-12-02T09:04:49.560Z,43.78
2023-12-02T09:05:49.510Z,38.12
2023-12-02T09:06:48.964Z,38.29
2023-12-02T09:07:49.704Z,41.11
2023-12-02T09:08:50.098Z,47.79
2023-12-02T09:09:50.059Z,52.11
2023-12-02T09:10:49.080Z,51.12
2023-12-02T09:11:49.061Z,49.37
2023-12-02T09:12:49.896Z,48.67
2023-12-02T09:13:49.059Z,43.80
2023-12-02T09:14:48.923Z,49.16
2023-12-02T09:15:48.724Z,50.06
2023-12-02T09:16:48.847Z,50.63
2023-12-02T09:17:48.709Z,44.46
2023-12-02T09:18:48.719Z,42.06
2023-12-02T09:19:48.691Z,48.61
2023-12-02T09:20:48.630Z,44.53
2023-12-02T09:21:48.657Z,50.14
2023-12-02T09:22:48.631Z,52.24
2023-12-02T09:23:50.101Z,52.17
2023-12-02T09:24:48.512Z,52.40
2023-12-02T09:25:48.544Z,52.47
2023-12-02T09:26:48.506Z,53.27
2023-12-02T09:27:48.473Z,53.42
2023-12-02T09:28:48.507Z,52.50
2023-12-02T09:29:48.345Z,53.04
2023-12-02T09:30:48.343Z,54.47
2023-12-02T09:31:48.305Z,55.64
2023-12-02T09:32:48.303Z,52.47
2023-12-02T09:33:48.300Z,52.45
2023-12-02T09:34:48.285Z,52.62
2023-12-02T09:35:48.260Z,52.61
2023-12-02T09:36:48.227Z,52.57
2023-12-02T09:37:48.162Z,53.41
2023-12-02T09:38:48.257Z,54.14
2023-12-02T09:39:49.023Z,52.42
2023-12-02T09:40:48.167Z,52.50
2023-12-02T09:41:49.066Z,51.12
2023-12-02T09:42:48.093Z,47.03
2023-12-02T09:43:48.151Z,49.90
2023-12-02T09:44:48.067Z,44.04
2023-12-02T09:45:48.007Z,41.14
2023-12-02T09:46:48.019Z,43.10
2023-12-02T09:47:47.852Z,52.12
2023-12-02T09:48:47.959Z,47.15
2023-12-02T09:49:47.912Z,49.46
2023-12-02T09:50:47.961Z,52.37
2023-12-02T09:51:47.866Z,52.42
2023-12-02T09:52:48.552Z,52.17
2023-12-02T09:53:48.530Z,45.55
2023-12-02T09:54:47.776Z,50.32
2023-12-02T09:55:47.729Z,52.64
2023-12-02T09:56:47.770Z,52.29
2023-12-02T09:57:47.606Z,47.94
2023-12-02T09:58:47.617Z,41.46
2023-12-02T09:59:47.599Z,38.66
2023-12-02T10:00:47.616Z,29.81
2023-12-02T10:01:47.625Z,47.64
2023-12-02T10:02:48.164Z,47.74
2023-12-02T10:03:47.487Z,48.32
2023-12-02T10:04:47.471Z,48.26
2023-12-02T10:05:47.362Z,48.13
2023-12-02T10:06:47.439Z,48.25
2023-12-02T10:07:47.367Z,48.12
2023-12-02T10:08:47.360Z,48.21
2023-12-02T10:09:48.127Z,48.06
2023-12-02T10:10:48.033Z,48.86
2023-12-02T10:11:47.182Z,48.00
2023-12-02T10:12:47.122Z,48.31
2023-12-02T10:13:47.165Z,48.08
2023-12-02T10:14:47.053Z,48.15
2023-12-02T10:15:47.114Z,48.16
2023-12-02T10:16:47.033Z,49.83
2023-12-02T10:17:47.556Z,48.23
2023-12-02T10:18:47.064Z,48.38
2023-12-02T10:19:48.073Z,49.80
2023-12-02T10:20:47.060Z,52.49
2023-12-02T10:21:47.530Z,48.54
2023-12-02T10:22:47.067Z,50.84
2023-12-02T10:23:46.964Z,48.45
2023-12-02T10:24:46.971Z,48.53
2023-12-02T10:25:47.006Z,48.37
2023-12-02T10:26:46.862Z,50.13
2023-12-02T10:27:46.856Z,52.75
2023-12-02T10:28:46.768Z,56.63
2023-12-02T10:29:46.743Z,48.46
2023-12-02T10:30:47.548Z,50.41
2023-12-02T10:31:48.233Z,55.69
2023-12-02T10:32:46.659Z,48.70
2023-12-02T10:33:47.558Z,49.22
2023-12-02T10:34:47.615Z,53.00
2023-12-02T10:35:46.640Z,57.96
2023-12-02T10:36:47.066Z,49.00
2023-12-02T10:37:46.510Z,52.39
2023-12-02T10:38:46.508Z,57.99
2023-12-02T10:39:46.467Z,66.58
2023-12-02T10:40:47.058Z,49.17
2023-12-02T10:41:46.315Z,54.20
2023-12-02T10:42:46.316Z,64.57
2023-12-02T10:43:46.321Z,49.65
2023-12-02T10:44:46.289Z,49.61
2023-12-02T10:45:46.277Z,53.11
2023-12-02T10:46:47.111Z,49.09
2023-12-02T10:47:46.167Z,55.05
2023-12-02T10:48:46.277Z,49.42
2023-12-02T10:49:47.170Z,53.96
2023-12-02T10:50:46.189Z,61.33
2023-12-02T10:51:46.025Z,49.17
2023-12-02T10:52:46.051Z,53.25
2023-12-02T10:53:45.991Z,48.88
2023-12-02T10:54:45.888Z,48.63
2023-12-02T10:55:46.544Z,50.64
2023-12-02T10:56:46.544Z,53.56
2023-12-02T10:57:45.854Z,58.91
2023-12-02T10:58:45.802Z,68.33
2023-12-02T10:59:45.743Z,73.42
2023-12-02T11:00:45.802Z,71.65
2023-12-02T11:01:45.753Z,73.68
2023-12-02T11:02:45.691Z,70.79
2023-12-02T11:03:45.614Z,65.89
2023-12-02T11:04:45.626Z,68.40
2023-12-02T11:05:46.643Z,73.75
2023-12-02T11:06:45.644Z,68.20
2023-12-02T11:07:45.526Z,63.10
2023-12-02T11:08:46.205Z,68.24
2023-12-02T11:09:46.676Z,61.89
2023-12-02T11:10:45.504Z,67.79
2023-12-02T11:11:45.465Z,66.02
2023-12-02T11:12:46.018Z,59.82
2023-12-02T11:13:45.355Z,49.42
2023-12-02T11:14:46.060Z,48.93
2023-12-02T11:15:45.986Z,46.50
2023-12-02T11:16:45.520Z,45.62
2023-12-02T11:17:45.604Z,38.52
2023-12-02T11:18:46.058Z,42.55
2023-12-02T11:19:45.581Z,42.51
2023-12-02T11:20:45.588Z,50.42
2023-12-02T11:21:46.110Z,57.89
2023-12-02T11:22:46.549Z,53.72
2023-12-02T11:23:46.536Z,50.16
2023-12-02T11:24:45.536Z,52.24
2023-12-02T11:25:45.588Z,51.90
2023-12-02T11:26:45.461Z,46.27
2023-12-02T11:27:45.849Z,39.44
2023-12-02T11:28:45.395Z,43.78
2023-12-02T11:29:45.419Z,33.14
2023-12-02T11:30:45.390Z,34.15
2023-12-02T11:31:46.049Z,36.11
2023-12-02T11:32:46.025Z,24.47
2023-12-02T11:33:45.937Z,22.97
2023-12-02T11:34:45.347Z,25.16
2023-12-02T11:35:48.271Z,22.34
2023-12-02T11:36:45.216Z,28.50
2023-12-02T11:37:45.225Z,40.12
2023-12-02T11:38:46.075Z,41.28
2023-12-02T11:39:45.165Z,48.94
2023-12-02T11:40:45.997Z,51.87
2023-12-02T11:41:46.062Z,51.37
2023-12-02T11:42:45.041Z,53.84
2023-12-02T11:43:45.539Z,63.71
2023-12-02T11:44:44.977Z,57.65
2023-12-02T11:45:44.977Z,64.30
2023-12-02T11:46:44.910Z,62.40
2023-12-02T11:47:45.602Z,64.29
2023-12-02T11:48:44.890Z,59.21
2023-12-02T11:49:45.620Z,69.83
2023-12-02T11:50:44.788Z,58.53
2023-12-02T11:51:44.696Z,59.42
2023-12-02T11:52:44.678Z,54.29
2023-12-02T11:53:45.564Z,43.88
2023-12-02T11:54:44.595Z,54.90
2023-12-02T11:55:45.658Z,59.75
2023-12-02T11:56:44.486Z,57.07
2023-12-02T11:57:44.491Z,63.24
2023-12-02T11:58:44.507Z,67.76
2023-12-02T11:59:44.454Z,65.97
2023-12-02T12:00:44.713Z,67.26
2023-12-02T12:01:44.542Z,69.40
2023-12-02T12:02:45.129Z,63.21
2023-12-02T12:03:44.363Z,61.21
2023-12-02T12:04:44.378Z,63.00
2023-12-02T12:05:45.173Z,72.21
2023-12-02T12:06:44.446Z,62.81
2023-12-02T12:07:44.246Z,54.74
2023-12-02T12:08:44.179Z,58.41
2023-12-02T12:09:44.283Z,67.61
2023-12-02T12:10:45.083Z,64.71
2023-12-02T12:11:44.134Z,65.63
2023-12-02T12:12:44.152Z,69.43
2023-12-02T12:13:44.026Z,71.71
2023-12-02T12:14:44.653Z,72.39
2023-12-02T12:15:44.535Z,66.28
2023-12-02T12:16:44.147Z,66.68
2023-12-02T12:17:45.067Z,70.97
2023-12-02T12:18:44.275Z,75.69
2023-12-02T12:19:44.241Z,79.24
2023-12-02T12:20:45.078Z,82.44
2023-12-02T12:21:44.293Z,73.54
2023-12-02T12:22:44.384Z,68.88
2023-12-02T12:23:44.296Z,65.71
2023-12-02T12:24:45.002Z,55.71
2023-12-02T12:25:44.271Z,60.39
2023-12-02T12:26:44.235Z,60.46
2023-12-02T12:27:44.241Z,62.20
2023-12-02T12:28:44.224Z,67.97
2023-12-02T12:29:45.108Z,65.15
2023-12-02T12:30:44.157Z,69.33
2023-12-02T12:31:44.044Z,69.11
2023-12-02T12:32:44.668Z,69.25
2023-12-02T12:33:44.667Z,65.60
2023-12-02T12:34:44.564Z,52.72
2023-12-02T12:35:43.998Z,51.96
2023-12-02T12:36:43.965Z,49.81
2023-12-02T12:37:44.565Z,59.61
2023-12-02T12:38:43.889Z,63.44
2023-12-02T12:39:44.595Z,52.26
2023-12-02T12:40:44.509Z,49.59
2023-12-02T12:41:43.789Z,55.56
2023-12-02T12:42:44.597Z,59.52
2023-12-02T12:43:46.528Z,45.64
2023-12-02T12:44:43.651Z,43.25
2023-12-02T12:45:43.809Z,27.87
2023-12-02T12:46:43.738Z,29.29
2023-12-02T12:47:43.741Z,26.88
2023-12-02T12:48:44.128Z,35.55
2023-12-02T12:49:44.675Z,33.18
2023-12-02T12:50:43.625Z,30.31
2023-12-02T12:51:43.585Z,31.46
2023-12-02T12:52:44.142Z,29.69
2023-12-02T12:53:43.600Z,29.55
2023-12-02T12:54:43.611Z,29.89